首页
METAR-TAF:

METAR-TAF

机场 :

伊瓜苏, 巴拉那州, 巴西

纬度: 25-31S, 经度: 054-35W, 海拔: 180米

当前天气观测

该预报发布于43分钟前的14:00 UTC
风速5节,风向东转东南
温度 27°C
湿度 70%
气压 1020 hPa
能见度10公里或以上
1500米以下无云,无积雨云

METAR: SBFI 251400Z 11005KT CAVOK 27/21 Q1020

时间: 11:43 (14:43 UTC)

预报

该预报发布于5小时和28分钟前的09:15 UTC
预报有效从25日的 12点(UTC)到 26日的 12点(UTC)
风速5节,风向南转南东
能见度10公里或以上
1500米以下无云,无积雨云
成为
从 25日的 14点(UTC)到 25日的 16点(UTC)
风速3节,风向
能见度10公里或以上
散云层高于3000英尺
几率 40%
从 26日的 02点(UTC)到 26日的 06点(UTC)
风速节,风向
能見度: 0500
层高于300英尺

TAF: SBFI 250915Z 2512/2612 16005KT CAVOK TX34/2517Z TN21/2608Z BECMG 2514/2516 01003KT 9999 SCT030 PROB40 2602/2606 00000KT 0500 FG VV003 RMK PCO

超过4000个机场的气象观测和天气预报(METAR&TAF报告)。

可查询的气象台以黄色和红色小点在地图上表示。

将鼠标移到小点上方,可查看气象台名称。

然后点击查看天气观测和预报。

如需切换地图:点击带黑十字的绿色按钮放大地图;点击带横线的绿色按钮缩小地图;或者点击绿色箭头查看邻近地区的地图。


METAR-TAF: